sensor_id;sensor_type;location;lat;lon;timestamp;P1;durP1;ratioP1;P2;durP2;ratioP2
9276;SDS011;4676;42.678;23.244;2022-11-21T19:38:22;5.37;;;4.83;;
9276;SDS011;4676;42.678;23.244;2022-11-21T19:40:48;6.10;;;5.60;;
9276;SDS011;4676;42.678;23.244;2022-11-21T19:43:32;5.93;;;4.37;;
9276;SDS011;4676;42.678;23.244;2022-11-21T19:46:00;4.03;;;3.73;;
9276;SDS011;4676;42.678;23.244;2022-11-21T19:48:26;4.00;;;3.70;;
9276;SDS011;4676;42.678;23.244;2022-11-21T19:50:53;4.47;;;3.60;;
9276;SDS011;4676;42.678;23.244;2022-11-21T19:53:22;3.87;;;3.60;;
9276;SDS011;4676;42.678;23.244;2022-11-21T19:55:48;4.10;;;3.87;;
9276;SDS011;4676;42.678;23.244;2022-11-21T19:58:15;4.97;;;4.10;;
9276;SDS011;4676;42.678;23.244;2022-11-21T20:00:41;4.37;;;4.07;;
9276;SDS011;4676;42.678;23.244;2022-11-21T20:03:08;5.40;;;4.57;;
9276;SDS011;4676;42.678;23.244;2022-11-21T20:05:34;6.50;;;4.63;;
9276;SDS011;4676;42.678;23.244;2022-11-21T20:08:01;5.03;;;4.63;;
9276;SDS011;4676;42.678;23.244;2022-11-21T20:10:29;3.90;;;3.60;;
9276;SDS011;4676;42.678;23.244;2022-11-21T20:12:56;4.33;;;3.93;;
9276;SDS011;4676;42.678;23.244;2022-11-21T20:15:22;4.37;;;4.03;;
9276;SDS011;4676;42.678;23.244;2022-11-21T20:17:49;5.13;;;4.30;;
9276;SDS011;4676;42.678;23.244;2022-11-21T20:20:16;5.77;;;3.83;;
9276;SDS011;4676;42.678;23.244;2022-11-21T20:22:43;4.90;;;3.43;;
9276;SDS011;4676;42.678;23.244;2022-11-21T20:25:09;4.77;;;4.37;;
9276;SDS011;4676;42.678;23.244;2022-11-21T20:27:37;4.67;;;4.30;;
9276;SDS011;4676;42.678;23.244;2022-11-21T20:30:04;5.10;;;4.50;;
9276;SDS011;4676;42.678;23.244;2022-11-21T20:32:31;3.87;;;3.67;;
9276;SDS011;4676;42.678;23.244;2022-11-21T20:34:59;3.53;;;3.33;;
9276;SDS011;4676;42.678;23.244;2022-11-21T20:37:25;3.50;;;3.30;;
9276;SDS011;4676;42.678;23.244;2022-11-21T20:39:52;3.90;;;2.93;;
9276;SDS011;4676;42.678;23.244;2022-11-21T20:42:18;3.10;;;2.90;;
9276;SDS011;4676;42.678;23.244;2022-11-21T20:44:46;2.77;;;2.67;;
9276;SDS011;4676;42.678;23.244;2022-11-21T20:47:13;3.93;;;3.63;;
9276;SDS011;4676;42.678;23.244;2022-11-21T20:49:40;2.67;;;2.47;;
9276;SDS011;4676;42.678;23.244;2022-11-21T20:52:07;3.37;;;3.17;;
9276;SDS011;4676;42.678;23.244;2022-11-21T20:54:33;3.97;;;3.63;;
9276;SDS011;4676;42.678;23.244;2022-11-21T20:57:00;3.67;;;3.13;;
9276;SDS011;4676;42.678;23.244;2022-11-21T20:59:26;4.90;;;3.43;;
9276;SDS011;4676;42.678;23.244;2022-11-21T21:01:54;3.73;;;3.53;;
9276;SDS011;4676;42.678;23.244;2022-11-21T21:04:21;2.30;;;2.20;;
9276;SDS011;4676;42.678;23.244;2022-11-21T21:06:47;2.57;;;2.37;;
9276;SDS011;4676;42.678;23.244;2022-11-21T21:09:14;2.87;;;2.70;;
9276;SDS011;4676;42.678;23.244;2022-11-21T21:11:40;3.87;;;3.67;;
9276;SDS011;4676;42.678;23.244;2022-11-21T21:14:07;3.57;;;3.37;;
9276;SDS011;4676;42.678;23.244;2022-11-21T21:16:34;2.40;;;2.30;;
9276;SDS011;4676;42.678;23.244;2022-11-21T21:19:02;3.00;;;2.80;;
9276;SDS011;4676;42.678;23.244;2022-11-21T21:21:28;2.47;;;2.37;;
9276;SDS011;4676;42.678;23.244;2022-11-21T21:23:56;2.20;;;2.00;;
9276;SDS011;4676;42.678;23.244;2022-11-21T21:26:25;2.57;;;2.47;;
9276;SDS011;4676;42.678;23.244;2022-11-21T21:28:51;2.40;;;2.17;;
9276;SDS011;4676;42.678;23.244;2022-11-21T21:31:19;3.90;;;2.50;;
9276;SDS011;4676;42.678;23.244;2022-11-21T21:33:46;2.50;;;2.30;;
9276;SDS011;4676;42.678;23.244;2022-11-21T21:36:14;2.40;;;2.20;;
9276;SDS011;4676;42.678;23.244;2022-11-21T21:38:41;2.47;;;2.37;;
9276;SDS011;4676;42.678;23.244;2022-11-21T21:41:09;2.30;;;2.20;;
9276;SDS011;4676;42.678;23.244;2022-11-21T21:43:37;2.97;;;2.77;;
9276;SDS011;4676;42.678;23.244;2022-11-21T21:46:04;2.30;;;2.20;;
9276;SDS011;4676;42.678;23.244;2022-11-21T21:48:31;2.60;;;2.40;;
9276;SDS011;4676;42.678;23.244;2022-11-21T21:51:04;2.43;;;2.33;;
9276;SDS011;4676;42.678;23.244;2022-11-21T21:53:33;3.10;;;2.90;;
9276;SDS011;4676;42.678;23.244;2022-11-21T21:56:00;2.60;;;2.50;;
9276;SDS011;4676;42.678;23.244;2022-11-21T21:58:27;2.20;;;2.10;;
9276;SDS011;4676;42.678;23.244;2022-11-21T22:01:00;2.67;;;2.57;;
9276;SDS011;4676;42.678;23.244;2022-11-21T22:03:27;3.67;;;3.47;;
9276;SDS011;4676;42.678;23.244;2022-11-21T22:05:53;5.23;;;4.30;;
9276;SDS011;4676;42.678;23.244;2022-11-21T22:08:20;2.80;;;2.60;;
9276;SDS011;4676;42.678;23.244;2022-11-21T22:10:48;2.43;;;2.23;;
9276;SDS011;4676;42.678;23.244;2022-11-21T22:13:14;4.50;;;2.57;;
9276;SDS011;4676;42.678;23.244;2022-11-21T22:15:41;3.00;;;2.80;;
9276;SDS011;4676;42.678;23.244;2022-11-21T22:18:07;2.73;;;2.53;;
9276;SDS011;4676;42.678;23.244;2022-11-21T22:20:34;4.33;;;3.00;;
9276;SDS011;4676;42.678;23.244;2022-11-21T22:23:00;3.10;;;2.90;;
9276;SDS011;4676;42.678;23.244;2022-11-21T22:25:27;3.30;;;3.00;;
9276;SDS011;4676;42.678;23.244;2022-11-21T22:27:55;2.33;;;2.23;;
9276;SDS011;4676;42.678;23.244;2022-11-21T22:30:21;2.23;;;2.03;;
9276;SDS011;4676;42.678;23.244;2022-11-21T22:32:48;2.17;;;2.07;;
9276;SDS011;4676;42.678;23.244;2022-11-21T22:35:15;1.80;;;1.80;;
9276;SDS011;4676;42.678;23.244;2022-11-21T22:37:41;1.93;;;1.80;;
9276;SDS011;4676;42.678;23.244;2022-11-21T22:40:08;2.20;;;2.07;;
9276;SDS011;4676;42.678;23.244;2022-11-21T22:42:35;1.77;;;1.67;;
9276;SDS011;4676;42.678;23.244;2022-11-21T22:45:03;1.50;;;1.40;;
9276;SDS011;4676;42.678;23.244;2022-11-21T22:47:29;1.63;;;1.53;;
9276;SDS011;4676;42.678;23.244;2022-11-21T22:49:56;1.23;;;1.23;;
9276;SDS011;4676;42.678;23.244;2022-11-21T22:52:22;1.50;;;1.50;;
9276;SDS011;4676;42.678;23.244;2022-11-21T22:54:49;1.90;;;1.80;;
9276;SDS011;4676;42.678;23.244;2022-11-21T22:57:15;1.40;;;1.40;;
9276;SDS011;4676;42.678;23.244;2022-11-21T22:59:43;1.47;;;1.47;;
9276;SDS011;4676;42.678;23.244;2022-11-21T23:02:11;1.40;;;1.40;;
9276;SDS011;4676;42.678;23.244;2022-11-21T23:04:38;1.70;;;1.60;;
9276;SDS011;4676;42.678;23.244;2022-11-21T23:07:04;1.80;;;1.70;;
9276;SDS011;4676;42.678;23.244;2022-11-21T23:09:31;2.03;;;1.93;;
9276;SDS011;4676;42.678;23.244;2022-11-21T23:11:57;1.60;;;1.60;;
9276;SDS011;4676;42.678;23.244;2022-11-21T23:14:24;1.70;;;1.60;;
9276;SDS011;4676;42.678;23.244;2022-11-21T23:16:50;1.90;;;1.80;;
9276;SDS011;4676;42.678;23.244;2022-11-21T23:19:18;1.83;;;1.73;;
9276;SDS011;4676;42.678;23.244;2022-11-21T23:21:45;1.90;;;1.80;;
9276;SDS011;4676;42.678;23.244;2022-11-21T23:24:11;2.03;;;1.83;;
9276;SDS011;4676;42.678;23.244;2022-11-21T23:26:38;1.50;;;1.40;;
9276;SDS011;4676;42.678;23.244;2022-11-21T23:29:04;1.40;;;1.40;;
9276;SDS011;4676;42.678;23.244;2022-11-21T23:31:31;2.00;;;1.90;;
9276;SDS011;4676;42.678;23.244;2022-11-21T23:33:57;1.50;;;1.50;;
9276;SDS011;4676;42.678;23.244;2022-11-21T23:36:25;1.80;;;1.80;;
9276;SDS011;4676;42.678;23.244;2022-11-21T23:38:51;2.13;;;2.03;;
9276;SDS011;4676;42.678;23.244;2022-11-21T23:41:18;1.73;;;1.70;;
9276;SDS011;4676;42.678;23.244;2022-11-21T23:43:44;1.70;;;1.70;;
